Paramaribo, Suriname
Current Conditions -  °F | °C
As of 8:00 AM on Saturday 01 Nov 2014 (Local Time) from SMJP Reporting Station
Broken Clouds Broken Clouds  
Wind Chill: 79°   Ceiling: 1000
Heat Index: 82°   Visibility: 6mi
Dew Point: 75°   Wind: 9mph
Humidity: 89%   Direction: 110°ESE
Pressure: 29.91"   Gusts: NA
Location:  5.45°N, 55.2°W
Report Text: SMJP 011100Z 11008KT 9999 BKN010 26/24 Q1013 NOSIG
Loading
Personal Weather Stations






























Interactive Weather Map
Tropical Storm Tracking
New forecast layout! Learn more

10-Day Weather Forecast

Advertisements
Track Severe Weather on mobile